Anchorage, AK

10:27 PM AKDT on August 28, 2014 (GMT -0800)
Merrill | Change Station
CLOSE
Current Station
Airport
Location: Anchorage Merrill,
Elevation: 135 ft
Nearby Weather Stations
Active Advisory: Special Statement Active Notice: Record Report

Elev 135 ft 61.22 °N, 149.85 °W | Updated 34 minutes ago

Light Rain
Light Rain Mist
54 °F
Feels Like 54 °F
N
5
Wind Variable Wind from NE

Today
High -- | Low -- °F
--% Chance of Precip.
Yesterday
High -- | Low -- °F
Precip. -- in
6:41 AM 9:17 PM
Waxing Crescent, 12% visible
Pressure 29.63 in
Visibility 7.0 miles
Clouds Scattered Clouds 700 ft
Mostly Cloudy 1700 ft
Overcast 3000 ft
Dew Point 50 °F
Humidity 86%
Rainfall 0.17 in
Snow Depth 1 in , 2 in
UV 0 out of 12
Pollen Not available.
Air Quality Not available.
Flu Activity Not available.
METAR PAMR 290553Z 05004KT 7SM -RA BR SCT007 BKN017 OVC030 12/10 A2963 RMK AO2 SLP033 P0005 60016 T01220100 10150 20122 56004

More Conditions Fewer Conditions

Pressure 29.63 in
Visibility 7.0 miles
Clouds Scattered Clouds 700 ft
Mostly Cloudy 1700 ft
Overcast 3000 ft
Dew Point 50 °F
Humidity 86%
Rainfall 0.17 in
Snow Depth 1 in , 2 in
UV 0 out of 12
Pollen Not available.
Air Quality Not available.
Flu Activity Not available.
METAR PAMR 290553Z 05004KT 7SM -RA BR SCT007 BKN017 OVC030 12/10 A2963 RMK AO2 SLP033 P0005 60016 T01220100 10150 20122 56004

More Conditions Fewer Conditions

10-Day Weather Forecast

Almanac

Astronomy

Aug. 28, 2014 Rise Set
Actual Time 6:41 AM AKDT 9:17 PM AKDT
Civil Twilight 5:53 AM AKDT 10:05 PM AKDT
Nautical Twilight 4:47 AM AKDT 11:10 PM AKDT
Astronomical Twilight 3:05 AM AKDT 12:47 AM AKDT
Moon 10:46 AM AKDT (8/28) 9:39 PM AKDT (8/28)
Length of Visible Light 16h 12m
Length of Day
14h 36m
Tomorrow will be 5m 38s shorter.
Waxing Crescent, 12% of the Moon is Illuminated
Aug 29
Waxing Crescent
Sep 2
First Quarter
Sep 8
Full
Sep 15
Last Quarter
Sep 24
New

Yesterday's Extremes

State Highs State Lows

Community

WunderPhotos

Upload Photos

1,748,197 photos uploaded!

Nearby

Snow Depth

Station Depth Elevation
Point Mackenzie 1 in 200 ft
Indian Pass 2 in 2300 ft
Turnagain Pass 2 in 1880 ft
Summit Creek 0 in 1400 ft
Grandview 8 in 1100 ft

Earthquake Activity

City Distance Mag. Time & Date
No recent earthquake activity has been reported nearby.
Minimum magnitude displayed is 2.5.

Coastal Water Temperatures

Place Temperature
No Stations Reporting

Nearby Weather Stations